createdAt,value
2023-01-28T00:01:19.769Z,74.28
2023-01-28T00:03:51.307Z,74.08
2023-01-28T00:06:19.208Z,74.03
2023-01-28T00:08:46.382Z,74.22
2023-01-28T00:11:14.703Z,73.98
2023-01-28T00:13:41.853Z,73.99
2023-01-28T00:16:09.968Z,73.73
2023-01-28T00:18:37.241Z,73.75
2023-01-28T00:21:07.165Z,73.64
2023-01-28T00:23:38.251Z,73.59
2023-01-28T00:26:07.981Z,73.49
2023-01-28T00:28:35.091Z,73.51
2023-01-28T00:31:14.684Z,73.40
2023-01-28T00:33:41.343Z,73.56
2023-01-28T00:36:08.472Z,73.54
2023-01-28T00:38:35.582Z,73.54
2023-01-28T00:41:17.146Z,73.58
2023-01-28T00:43:45.617Z,73.56
2023-01-28T00:46:14.132Z,73.61
2023-01-28T00:48:43.035Z,73.61
2023-01-28T00:51:12.462Z,73.54
2023-01-28T00:53:39.906Z,73.57
2023-01-28T00:56:08.936Z,73.52
2023-01-28T00:58:35.917Z,73.41
2023-01-28T01:01:17.532Z,73.24
2023-01-28T01:03:44.748Z,73.27
2023-01-28T01:06:13.678Z,73.21
2023-01-28T01:08:43.192Z,73.34
2023-01-28T01:11:11.990Z,73.28
2023-01-28T01:13:39.211Z,73.19
2023-01-28T01:16:08.960Z,73.38
2023-01-28T01:18:36.593Z,73.50
2023-01-28T01:21:07.385Z,73.48
2023-01-28T01:23:34.076Z,73.48
2023-01-28T01:26:00.973Z,73.52
2023-01-28T01:28:27.644Z,73.63
2023-01-28T01:31:08.497Z,73.80
2023-01-28T01:33:35.283Z,73.67
2023-01-28T01:36:02.872Z,73.72
2023-01-28T01:38:30.361Z,73.81
2023-01-28T01:41:01.179Z,73.88
2023-01-28T01:43:54.166Z,73.99
2023-01-28T01:46:45.550Z,73.98
2023-01-28T01:49:22.537Z,74.19
2023-01-28T01:51:54.700Z,74.19
2023-01-28T01:54:26.263Z,74.61
2023-01-28T01:56:53.479Z,74.35
2023-01-28T01:59:25.057Z,74.45
2023-01-28T02:01:54.012Z,74.49
2023-01-28T02:04:29.076Z,74.52
2023-01-28T02:06:58.718Z,74.74
2023-01-28T02:09:37.553Z,74.78
2023-01-28T02:12:14.001Z,75.00
2023-01-28T02:14:51.984Z,74.92
2023-01-28T02:17:19.218Z,75.11
2023-01-28T02:20:00.043Z,75.36
2023-01-28T02:22:33.034Z,75.55
2023-01-28T02:25:25.880Z,75.79
2023-01-28T02:27:55.548Z,76.03
2023-01-28T02:30:39.029Z,76.15
2023-01-28T02:33:14.145Z,76.46
2023-01-28T02:35:49.327Z,76.64
2023-01-28T02:38:22.726Z,76.92
2023-01-28T02:41:06.640Z,77.19
2023-01-28T02:43:43.293Z,77.66
2023-01-28T02:46:38.157Z,77.91
2023-01-28T02:49:10.455Z,78.41
2023-01-28T02:51:40.226Z,78.82
2023-01-28T02:54:45.352Z,79.08
2023-01-28T02:57:17.677Z,79.51
2023-01-28T03:00:10.473Z,79.95
2023-01-28T03:02:51.005Z,80.21
2023-01-28T03:05:31.642Z,80.52
2023-01-28T03:07:59.095Z,80.90
2023-01-28T03:10:28.500Z,81.37
2023-01-28T03:13:16.822Z,81.56
2023-01-28T03:16:06.425Z,81.91
2023-01-28T03:19:03.360Z,82.30
2023-01-28T03:21:55.395Z,82.55
2023-01-28T03:24:45.469Z,82.92
2023-01-28T03:27:42.827Z,83.15
2023-01-28T03:30:40.170Z,83.32
2023-01-28T03:33:26.701Z,83.58
2023-01-28T03:36:12.431Z,83.72
2023-01-28T03:38:48.913Z,84.11
2023-01-28T03:41:22.663Z,84.16
2023-01-28T03:43:50.249Z,84.43
2023-01-28T03:46:18.532Z,84.48
2023-01-28T03:48:45.953Z,84.61
2023-01-28T03:51:12.800Z,84.65
2023-01-28T03:53:40.409Z,84.77
2023-01-28T03:56:07.816Z,84.88
2023-01-28T03:58:53.117Z,85.10
2023-01-28T04:01:20.882Z,85.17
2023-01-28T04:03:47.638Z,85.23
2023-01-28T04:06:14.591Z,85.34
2023-01-28T04:08:46.430Z,85.41
2023-01-28T04:11:16.201Z,85.54
2023-01-28T04:13:43.762Z,85.64
2023-01-28T04:16:12.351Z,85.89
2023-01-28T04:18:39.667Z,85.71
2023-01-28T04:21:06.573Z,85.81
2023-01-28T04:23:33.373Z,85.97
2023-01-28T04:26:00.165Z,85.93
2023-01-28T04:28:27.028Z,86.03
2023-01-28T04:30:54.065Z,86.14
2023-01-28T04:33:20.892Z,86.21
2023-01-28T04:35:47.532Z,86.30
2023-01-28T04:38:14.486Z,86.44
2023-01-28T04:40:41.284Z,86.49
2023-01-28T04:43:08.883Z,86.77
2023-01-28T04:45:35.732Z,86.65
2023-01-28T04:48:02.474Z,86.84
2023-01-28T04:50:29.124Z,86.97
2023-01-28T04:52:55.970Z,87.16
2023-01-28T04:55:22.748Z,87.25
2023-01-28T04:57:49.441Z,87.25
2023-01-28T05:00:16.909Z,87.33
2023-01-28T05:02:43.709Z,87.38
2023-01-28T05:05:10.437Z,87.50
2023-01-28T05:07:37.710Z,87.62
2023-01-28T05:10:05.065Z,87.74
2023-01-28T05:12:33.173Z,87.79
2023-01-28T05:15:01.119Z,87.93
2023-01-28T05:17:29.175Z,87.89
2023-01-28T05:19:55.965Z,88.05
2023-01-28T05:22:23.113Z,88.27
2023-01-28T05:24:49.852Z,88.32
2023-01-28T05:27:16.524Z,88.37
2023-01-28T05:29:43.704Z,88.47
2023-01-28T05:32:10.572Z,88.53
2023-01-28T05:34:37.356Z,88.51
2023-01-28T05:37:04.193Z,88.54
2023-01-28T05:39:31.537Z,88.60
2023-01-28T05:41:58.496Z,88.69
2023-01-28T05:44:25.362Z,88.57
2023-01-28T05:46:52.728Z,88.85
2023-01-28T05:49:19.360Z,88.83
2023-01-28T05:51:46.233Z,88.85
2023-01-28T05:54:13.156Z,88.87
2023-01-28T05:56:40.431Z,88.76
2023-01-28T05:59:07.297Z,88.89
2023-01-28T06:01:34.074Z,88.76
2023-01-28T06:04:00.724Z,88.91
2023-01-28T06:06:27.543Z,89.04
2023-01-28T06:08:54.285Z,88.91
2023-01-28T06:11:21.343Z,89.14
2023-01-28T06:13:48.148Z,89.17
2023-01-28T06:16:15.096Z,89.34
2023-01-28T06:18:41.880Z,89.33
2023-01-28T06:21:08.984Z,89.56
2023-01-28T06:23:35.849Z,89.62
2023-01-28T06:26:03.036Z,89.87
2023-01-28T06:28:30.353Z,89.85
2023-01-28T06:30:57.105Z,90.07
2023-01-28T06:33:24.431Z,89.88
2023-01-28T06:35:51.254Z,90.04
2023-01-28T06:38:18.306Z,90.21
2023-01-28T06:40:45.051Z,90.49
2023-01-28T06:43:11.913Z,90.32
2023-01-28T06:45:38.675Z,90.69
2023-01-28T06:48:08.709Z,90.63
2023-01-28T06:50:35.691Z,90.77
2023-01-28T06:53:02.395Z,90.81
2023-01-28T06:55:29.071Z,90.96
2023-01-28T06:57:55.999Z,90.98
2023-01-28T07:00:22.789Z,91.30
2023-01-28T07:02:49.512Z,91.12
2023-01-28T07:05:16.493Z,91.08
2023-01-28T07:07:43.303Z,91.11
2023-01-28T07:10:10.914Z,91.15
2023-01-28T07:12:37.726Z,91.21
2023-01-28T07:15:04.747Z,91.32
2023-01-28T07:17:31.478Z,91.43
2023-01-28T07:19:58.481Z,91.35
2023-01-28T07:22:25.178Z,91.32
2023-01-28T07:24:52.297Z,91.56
2023-01-28T07:27:19.212Z,91.33
2023-01-28T07:29:45.916Z,91.54
2023-01-28T07:32:12.611Z,91.60
2023-01-28T07:34:41.933Z,91.56
2023-01-28T07:37:09.384Z,91.75
2023-01-28T07:39:36.145Z,91.86
2023-01-28T07:42:03.098Z,91.96
2023-01-28T07:44:29.836Z,91.87
2023-01-28T07:46:56.503Z,91.83
2023-01-28T07:49:23.593Z,92.02
2023-01-28T07:51:51.058Z,92.01
2023-01-28T07:54:17.753Z,91.99
2023-01-28T07:56:44.673Z,92.19
2023-01-28T07:59:11.378Z,92.13
2023-01-28T08:01:38.219Z,92.30
2023-01-28T08:04:05.241Z,92.44
2023-01-28T08:06:38.020Z,92.38
2023-01-28T08:09:08.699Z,92.50
2023-01-28T08:11:38.651Z,92.66
2023-01-28T08:14:05.510Z,92.57
2023-01-28T08:16:32.357Z,92.70
2023-01-28T08:18:59.105Z,92.70
2023-01-28T08:21:25.776Z,92.61
2023-01-28T08:23:52.714Z,92.71
2023-01-28T08:26:19.423Z,92.86
2023-01-28T08:28:46.126Z,92.91
2023-01-28T08:31:13.172Z,93.06
2023-01-28T08:33:39.989Z,92.83
2023-01-28T08:36:07.125Z,92.71
2023-01-28T08:38:33.978Z,92.84
2023-01-28T08:41:00.858Z,93.02
2023-01-28T08:43:27.532Z,92.79
2023-01-28T08:45:54.409Z,93.02
2023-01-28T08:48:21.876Z,93.12
2023-01-28T08:50:48.606Z,93.12
2023-01-28T08:53:20.626Z,93.01
2023-01-28T08:55:47.905Z,93.12
2023-01-28T08:58:17.029Z,93.07
2023-01-28T09:00:45.294Z,93.01
2023-01-28T09:03:14.427Z,92.90
2023-01-28T09:05:41.215Z,93.15
2023-01-28T09:08:10.850Z,92.98
2023-01-28T09:10:38.320Z,92.86
2023-01-28T09:13:10.823Z,92.86
2023-01-28T09:15:38.366Z,92.74
2023-01-28T09:18:06.769Z,92.68
2023-01-28T09:20:34.260Z,93.07
2023-01-28T09:23:02.258Z,92.81
2023-01-28T09:25:29.095Z,92.76
2023-01-28T09:27:56.043Z,92.60
2023-01-28T09:30:22.848Z,92.83
2023-01-28T09:32:53.863Z,92.63
2023-01-28T09:35:22.170Z,92.77
2023-01-28T09:37:49.321Z,92.65
2023-01-28T09:40:21.097Z,92.31
2023-01-28T09:42:53.946Z,92.43
2023-01-28T09:45:50.894Z,92.13
2023-01-28T09:48:21.827Z,92.02
2023-01-28T09:50:56.856Z,91.94
2023-01-28T09:53:33.525Z,92.09
2023-01-28T09:56:29.196Z,91.84
2023-01-28T09:58:58.352Z,91.70
2023-01-28T10:01:47.395Z,91.58
2023-01-28T10:04:37.506Z,91.63
2023-01-28T10:07:07.115Z,91.32
2023-01-28T10:09:52.115Z,91.47
2023-01-28T10:12:40.523Z,91.47
2023-01-28T10:15:36.156Z,91.20
2023-01-28T10:18:16.945Z,91.25
2023-01-28T10:20:51.237Z,91.18
2023-01-28T10:23:30.213Z,91.21
2023-01-28T10:26:02.453Z,91.26
2023-01-28T10:28:30.195Z,91.17
2023-01-28T10:30:57.172Z,91.32
2023-01-28T10:33:37.233Z,91.39
2023-01-28T10:36:04.833Z,91.47
2023-01-28T10:38:32.255Z,91.24
2023-01-28T10:41:02.439Z,91.34
2023-01-28T10:43:38.969Z,91.38
2023-01-28T10:46:19.800Z,91.22
2023-01-28T10:48:55.733Z,91.41
2023-01-28T10:51:38.007Z,91.35
2023-01-28T10:54:22.048Z,91.49
2023-01-28T10:56:53.472Z,91.14
2023-01-28T10:59:25.918Z,91.10
2023-01-28T11:01:56.776Z,91.11
2023-01-28T11:04:34.725Z,90.94
2023-01-28T11:07:20.487Z,91.08
2023-01-28T11:09:50.397Z,90.70
2023-01-28T11:12:23.013Z,90.96
2023-01-28T11:14:58.675Z,91.06
2023-01-28T11:17:29.431Z,90.61
2023-01-28T11:19:59.805Z,90.68
2023-01-28T11:22:36.942Z,90.57
2023-01-28T11:25:16.028Z,90.19
2023-01-28T11:27:49.121Z,89.99
2023-01-28T11:30:23.999Z,89.96
2023-01-28T11:33:18.503Z,90.08
2023-01-28T11:36:04.079Z,89.64
2023-01-28T11:38:31.001Z,89.78
2023-01-28T11:41:00.954Z,89.21
2023-01-28T11:43:31.793Z,89.41
2023-01-28T11:46:33.970Z,89.15
2023-01-28T11:49:30.696Z,89.18
2023-01-28T11:52:03.266Z,88.42
2023-01-28T11:55:19.434Z,88.17
2023-01-28T11:57:51.909Z,88.47
2023-01-28T12:00:43.438Z,88.06
2023-01-28T12:03:22.375Z,88.12
2023-01-28T12:05:55.591Z,88.04
2023-01-28T12:08:57.699Z,87.77
2023-01-28T12:11:56.568Z,87.74
2023-01-28T12:14:41.927Z,88.00
2023-01-28T12:17:26.192Z,87.83
2023-01-28T12:20:15.321Z,88.09
2023-01-28T12:23:16.328Z,87.99
2023-01-28T12:26:07.210Z,88.00
2023-01-28T12:29:12.804Z,88.26
2023-01-28T12:31:55.011Z,87.99
2023-01-28T12:34:43.625Z,88.24
2023-01-28T12:37:30.528Z,88.19
2023-01-28T12:40:15.026Z,88.50
2023-01-28T12:42:48.466Z,88.72
2023-01-28T12:45:28.097Z,88.81
2023-01-28T12:48:01.178Z,88.90
2023-01-28T12:50:31.506Z,88.77
2023-01-28T12:53:23.513Z,89.04
2023-01-28T12:56:00.865Z,89.02
2023-01-28T12:58:43.564Z,88.73
2023-01-28T13:01:16.165Z,88.84
2023-01-28T13:04:02.979Z,88.72
2023-01-28T13:06:47.716Z,88.95
2023-01-28T13:09:19.987Z,89.09
2023-01-28T13:11:50.035Z,89.13
2023-01-28T13:14:31.690Z,88.96
2023-01-28T13:17:26.400Z,89.04
2023-01-28T13:19:53.122Z,88.85
2023-01-28T13:22:33.906Z,88.70
2023-01-28T13:25:27.220Z,88.84
2023-01-28T13:28:03.374Z,88.92
2023-01-28T13:30:48.142Z,88.82
2023-01-28T13:33:33.717Z,88.82
2023-01-28T13:36:08.232Z,88.71
2023-01-28T13:38:36.477Z,88.45
2023-01-28T13:41:06.597Z,88.74
2023-01-28T13:43:33.249Z,88.47
2023-01-28T13:46:04.378Z,88.63
2023-01-28T13:48:54.881Z,88.58
2023-01-28T13:51:27.645Z,88.25
2023-01-28T13:54:06.231Z,88.35
2023-01-28T13:56:42.711Z,88.50
2023-01-28T13:59:43.329Z,88.39
2023-01-28T14:02:38.022Z,88.24
2023-01-28T14:05:36.976Z,88.32
2023-01-28T14:08:24.353Z,88.62
2023-01-28T14:11:46.602Z,88.37
2023-01-28T14:14:41.706Z,88.29
2023-01-28T14:17:08.438Z,88.78
2023-01-28T14:19:37.933Z,88.76
2023-01-28T14:22:19.370Z,88.53
2023-01-28T14:24:46.564Z,88.48
2023-01-28T14:27:22.358Z,88.79
2023-01-28T14:30:12.184Z,88.86
2023-01-28T14:32:47.089Z,88.68
2023-01-28T14:35:20.217Z,88.60
2023-01-28T14:37:47.129Z,88.48
2023-01-28T14:40:17.418Z,88.61
2023-01-28T14:42:47.967Z,88.64
2023-01-28T14:45:23.909Z,88.43
2023-01-28T14:48:20.297Z,88.53
2023-01-28T14:51:01.078Z,88.60
2023-01-28T14:53:55.713Z,88.49
2023-01-28T14:56:46.821Z,88.39
2023-01-28T14:59:29.642Z,88.63
2023-01-28T15:01:58.996Z,88.36
2023-01-28T15:04:29.109Z,88.44
2023-01-28T15:06:56.620Z,88.30
2023-01-28T15:09:24.243Z,88.40
2023-01-28T15:11:57.946Z,88.66
2023-01-28T15:14:31.962Z,88.29
2023-01-28T15:17:00.794Z,88.22
2023-01-28T15:19:37.639Z,88.18
2023-01-28T15:22:07.596Z,88.39
2023-01-28T15:24:35.999Z,88.16
2023-01-28T15:27:03.778Z,88.19
2023-01-28T15:29:36.630Z,88.05
2023-01-28T15:32:05.939Z,87.99
2023-01-28T15:34:32.871Z,87.92
2023-01-28T15:37:01.047Z,88.09
2023-01-28T15:39:29.741Z,88.18
2023-01-28T15:42:03.385Z,88.02
2023-01-28T15:44:32.498Z,88.39
2023-01-28T15:47:14.083Z,88.24
2023-01-28T15:49:45.995Z,88.21
2023-01-28T15:52:13.317Z,88.32
2023-01-28T15:54:48.981Z,88.45
2023-01-28T15:57:25.259Z,88.58
2023-01-28T15:59:52.165Z,88.45
2023-01-28T16:02:24.372Z,88.43
2023-01-28T16:05:05.763Z,88.80
2023-01-28T16:07:34.161Z,88.63
2023-01-28T16:10:03.939Z,88.85
2023-01-28T16:12:30.821Z,89.03
2023-01-28T16:14:57.441Z,88.77
2023-01-28T16:17:53.421Z,88.82
2023-01-28T16:20:22.150Z,89.17
2023-01-28T16:22:49.211Z,89.08
2023-01-28T16:25:21.898Z,89.45
2023-01-28T16:27:49.047Z,89.07
2023-01-28T16:30:17.314Z,89.38
2023-01-28T16:32:44.931Z,89.52
2023-01-28T16:35:20.183Z,89.32
2023-01-28T16:37:49.254Z,89.63
2023-01-28T16:40:25.797Z,89.73
2023-01-28T16:42:56.369Z,89.97
2023-01-28T16:45:25.180Z,89.99
2023-01-28T16:47:53.066Z,89.95
2023-01-28T16:50:22.200Z,89.90
2023-01-28T16:52:51.223Z,90.02
2023-01-28T16:55:20.532Z,89.97
2023-01-28T16:57:49.386Z,90.13
2023-01-28T17:00:23.253Z,90.46
2023-01-28T17:02:51.633Z,90.30
2023-01-28T17:05:20.032Z,90.56
2023-01-28T17:07:50.629Z,90.70
2023-01-28T17:10:18.519Z,90.78
2023-01-28T17:12:45.216Z,90.74
2023-01-28T17:15:12.117Z,91.04
2023-01-28T17:17:39.080Z,91.08
2023-01-28T17:20:06.332Z,91.02
2023-01-28T17:22:33.120Z,91.24
2023-01-28T17:24:59.933Z,91.22
2023-01-28T17:27:26.817Z,91.43
2023-01-28T17:29:53.839Z,91.41
2023-01-28T17:32:20.682Z,91.53
2023-01-28T17:34:47.976Z,91.67
2023-01-28T17:37:14.743Z,91.76
2023-01-28T17:39:41.721Z,91.66
2023-01-28T17:42:08.430Z,91.61
2023-01-28T17:44:35.203Z,91.56
2023-01-28T17:47:03.311Z,91.81
2023-01-28T17:49:30.148Z,92.08
2023-01-28T17:51:56.995Z,91.96
2023-01-28T17:54:26.960Z,92.12
2023-01-28T17:56:54.100Z,91.93
2023-01-28T17:59:21.879Z,92.03
2023-01-28T18:01:50.214Z,92.22
2023-01-28T18:04:16.976Z,92.29
2023-01-28T18:06:44.857Z,92.45
2023-01-28T18:09:12.865Z,92.42
2023-01-28T18:11:44.118Z,92.19
2023-01-28T18:14:10.885Z,92.30
2023-01-28T18:16:37.816Z,92.25
2023-01-28T18:19:06.437Z,92.52
2023-01-28T18:21:51.817Z,92.56
2023-01-28T18:24:19.415Z,92.63
2023-01-28T18:26:46.150Z,92.57
2023-01-28T18:29:16.993Z,92.49
2023-01-28T18:31:44.530Z,92.50
2023-01-28T18:34:11.330Z,92.37
2023-01-28T18:36:38.016Z,92.53
2023-01-28T18:39:04.948Z,92.29
2023-01-28T18:41:31.862Z,92.50
2023-01-28T18:43:58.569Z,92.35
2023-01-28T18:46:25.299Z,92.56
2023-01-28T18:48:52.036Z,92.47
2023-01-28T18:51:29.481Z,92.47
2023-01-28T18:54:03.392Z,92.62
2023-01-28T18:56:31.708Z,92.55
2023-01-28T18:59:00.662Z,92.30
2023-01-28T19:01:29.072Z,92.27
2023-01-28T19:03:57.161Z,92.65
2023-01-28T19:06:24.895Z,92.39
2023-01-28T19:08:53.886Z,92.31
2023-01-28T19:11:22.022Z,92.49
2023-01-28T19:13:48.932Z,92.50
2023-01-28T19:16:15.830Z,92.51
2023-01-28T19:18:42.642Z,92.43
2023-01-28T19:21:09.797Z,92.33
2023-01-28T19:23:49.261Z,92.15
2023-01-28T19:26:21.157Z,92.35
2023-01-28T19:28:49.583Z,92.35
2023-01-28T19:31:19.019Z,91.89
2023-01-28T19:33:47.253Z,92.25
2023-01-28T19:36:14.611Z,92.30
2023-01-28T19:38:43.783Z,92.23
2023-01-28T19:41:13.571Z,91.96
2023-01-28T19:43:40.451Z,92.22
2023-01-28T19:46:07.241Z,91.93
2023-01-28T19:48:34.239Z,92.27
2023-01-28T19:51:08.867Z,92.24
2023-01-28T19:53:36.666Z,92.03
2023-01-28T19:56:05.944Z,91.91
2023-01-28T19:58:40.894Z,92.21
2023-01-28T20:01:13.322Z,92.15
2023-01-28T20:03:40.413Z,91.87
2023-01-28T20:06:12.041Z,92.01
2023-01-28T20:08:38.728Z,92.12
2023-01-28T20:11:11.824Z,92.02
2023-01-28T20:13:40.461Z,92.08
2023-01-28T20:16:11.092Z,91.99
2023-01-28T20:18:38.103Z,91.98
2023-01-28T20:21:07.802Z,92.06
2023-01-28T20:23:34.632Z,92.08
2023-01-28T20:26:03.863Z,91.95
2023-01-28T20:28:30.754Z,92.11
2023-01-28T20:30:57.862Z,92.00
2023-01-28T20:33:24.924Z,92.01
2023-01-28T20:35:51.676Z,92.19
2023-01-28T20:38:18.374Z,92.18
2023-01-28T20:40:46.343Z,91.98
2023-01-28T20:43:13.246Z,92.14
2023-01-28T20:45:40.038Z,92.04
2023-01-28T20:48:07.166Z,92.12
2023-01-28T20:50:35.157Z,92.40
2023-01-28T20:53:03.465Z,92.35
2023-01-28T20:55:31.727Z,92.25
2023-01-28T20:57:58.668Z,92.48
2023-01-28T21:00:25.681Z,92.21
2023-01-28T21:02:52.478Z,92.33
2023-01-28T21:05:19.264Z,92.15
2023-01-28T21:07:45.956Z,92.02
2023-01-28T21:10:12.747Z,92.08
2023-01-28T21:12:39.559Z,92.26
2023-01-28T21:15:08.180Z,91.89
2023-01-28T21:17:34.925Z,92.04
2023-01-28T21:20:01.650Z,91.87
2023-01-28T21:22:28.330Z,91.88
2023-01-28T21:24:55.813Z,91.48
2023-01-28T21:27:22.582Z,91.10
2023-01-28T21:29:49.458Z,91.30
2023-01-28T21:32:18.947Z,91.01
2023-01-28T21:34:45.720Z,90.61
2023-01-28T21:37:12.492Z,90.43
2023-01-28T21:39:39.367Z,90.34
2023-01-28T21:42:08.355Z,90.06
2023-01-28T21:44:35.057Z,89.97
2023-01-28T21:47:01.772Z,90.00
2023-01-28T21:49:28.636Z,89.54
2023-01-28T21:51:55.314Z,89.60
2023-01-28T21:54:22.042Z,89.61
2023-01-28T21:56:50.866Z,89.04
2023-01-28T21:59:28.680Z,89.16
2023-01-28T22:01:58.843Z,89.20
2023-01-28T22:04:29.122Z,88.86
2023-01-28T22:06:56.147Z,89.00
2023-01-28T22:09:23.331Z,88.82
2023-01-28T22:11:50.202Z,88.71
2023-01-28T22:14:17.478Z,88.85
2023-01-28T22:16:44.405Z,88.72
2023-01-28T22:19:11.700Z,88.53
2023-01-28T22:21:42.394Z,88.51
2023-01-28T22:24:15.122Z,88.22
2023-01-28T22:26:43.004Z,88.09
2023-01-28T22:29:10.398Z,88.37
2023-01-28T22:31:38.132Z,88.12
2023-01-28T22:34:05.615Z,88.00
2023-01-28T22:36:36.189Z,88.24
2023-01-28T22:39:05.174Z,88.10
2023-01-28T22:41:32.534Z,87.93
2023-01-28T22:44:01.699Z,88.06
2023-01-28T22:46:28.828Z,88.21
2023-01-28T22:48:55.593Z,87.95
2023-01-28T22:51:30.100Z,87.85
2023-01-28T22:53:57.334Z,87.98
2023-01-28T22:56:26.595Z,87.87
2023-01-28T22:59:03.437Z,88.00
2023-01-28T23:01:30.899Z,87.84
2023-01-28T23:03:57.753Z,87.94
2023-01-28T23:06:26.741Z,87.91
2023-01-28T23:08:54.467Z,87.98
2023-01-28T23:11:28.114Z,87.87
2023-01-28T23:14:19.682Z,88.07
2023-01-28T23:17:05.841Z,87.82
2023-01-28T23:19:51.757Z,88.21
2023-01-28T23:22:47.259Z,87.98
2023-01-28T23:25:14.442Z,87.94
2023-01-28T23:27:41.544Z,88.35
2023-01-28T23:30:10.530Z,88.13
2023-01-28T23:32:40.321Z,88.17
2023-01-28T23:35:11.573Z,88.38
2023-01-28T23:37:38.567Z,88.17
2023-01-28T23:40:06.796Z,88.29
2023-01-28T23:42:33.672Z,88.27
2023-01-28T23:45:00.437Z,88.47
2023-01-28T23:47:27.151Z,88.16
2023-01-28T23:49:54.172Z,88.28
2023-01-28T23:52:21.020Z,88.44
2023-01-28T23:54:47.769Z,88.23
2023-01-28T23:57:14.587Z,88.06
2023-01-28T23:59:41.343Z,88.16
